sensor_id;sensor_type;location;lat;lon;timestamp;P1;durP1;ratioP1;P2;durP2;ratioP2
6438;SDS011;3252;52.540;13.290;2023-08-20T00:00:33;13.25;;;9.75;;
6438;SDS011;3252;52.540;13.290;2023-08-20T00:02:36;14.25;;;10.07;;
6438;SDS011;3252;52.540;13.290;2023-08-20T00:04:39;15.82;;;10.70;;
6438;SDS011;3252;52.540;13.290;2023-08-20T00:06:44;13.13;;;10.30;;
6438;SDS011;3252;52.540;13.290;2023-08-20T00:08:47;12.25;;;10.98;;
6438;SDS011;3252;52.540;13.290;2023-08-20T00:10:48;11.80;;;10.43;;
6438;SDS011;3252;52.540;13.290;2023-08-20T00:12:50;12.82;;;10.48;;
6438;SDS011;3252;52.540;13.290;2023-08-20T00:14:53;12.07;;;9.85;;
6438;SDS011;3252;52.540;13.290;2023-08-20T00:16:57;12.73;;;10.82;;
6438;SDS011;3252;52.540;13.290;2023-08-20T00:19:00;14.05;;;10.65;;
6438;SDS011;3252;52.540;13.290;2023-08-20T00:21:04;11.93;;;10.60;;
6438;SDS011;3252;52.540;13.290;2023-08-20T00:23:09;12.70;;;10.43;;
6438;SDS011;3252;52.540;13.290;2023-08-20T00:25:11;12.70;;;10.52;;
6438;SDS011;3252;52.540;13.290;2023-08-20T00:27:14;14.43;;;10.13;;
6438;SDS011;3252;52.540;13.290;2023-08-20T00:29:17;14.70;;;10.85;;
6438;SDS011;3252;52.540;13.290;2023-08-20T00:31:19;10.95;;;9.75;;
6438;SDS011;3252;52.540;13.290;2023-08-20T00:33:21;13.40;;;10.25;;
6438;SDS011;3252;52.540;13.290;2023-08-20T00:35:23;13.45;;;10.57;;
6438;SDS011;3252;52.540;13.290;2023-08-20T00:37:25;10.82;;;9.63;;
6438;SDS011;3252;52.540;13.290;2023-08-20T00:39:29;11.20;;;10.10;;
6438;SDS011;3252;52.540;13.290;2023-08-20T00:41:31;11.95;;;10.35;;
6438;SDS011;3252;52.540;13.290;2023-08-20T00:43:33;13.20;;;10.30;;
6438;SDS011;3252;52.540;13.290;2023-08-20T00:45:35;13.52;;;10.60;;
6438;SDS011;3252;52.540;13.290;2023-08-20T00:47:37;12.63;;;10.48;;
6438;SDS011;3252;52.540;13.290;2023-08-20T00:49:40;11.73;;;10.52;;
6438;SDS011;3252;52.540;13.290;2023-08-20T00:51:42;13.18;;;10.10;;
6438;SDS011;3252;52.540;13.290;2023-08-20T00:53:45;11.38;;;10.18;;
6438;SDS011;3252;52.540;13.290;2023-08-20T00:55:48;11.13;;;9.93;;
6438;SDS011;3252;52.540;13.290;2023-08-20T00:57:50;15.13;;;9.80;;
6438;SDS011;3252;52.540;13.290;2023-08-20T00:59:52;11.98;;;9.55;;
6438;SDS011;3252;52.540;13.290;2023-08-20T01:01:56;12.10;;;9.23;;
6438;SDS011;3252;52.540;13.290;2023-08-20T01:03:58;16.27;;;9.65;;
6438;SDS011;3252;52.540;13.290;2023-08-20T01:06:02;13.07;;;9.80;;
6438;SDS011;3252;52.540;13.290;2023-08-20T01:08:19;13.60;;;9.88;;
6438;SDS011;3252;52.540;13.290;2023-08-20T01:10:29;10.65;;;9.52;;
6438;SDS011;3252;52.540;13.290;2023-08-20T01:12:41;13.93;;;9.55;;
6438;SDS011;3252;52.540;13.290;2023-08-20T01:14:47;10.00;;;8.98;;
6438;SDS011;3252;52.540;13.290;2023-08-20T01:16:49;10.43;;;9.32;;
6438;SDS011;3252;52.540;13.290;2023-08-20T01:18:51;11.50;;;9.60;;
6438;SDS011;3252;52.540;13.290;2023-08-20T01:20:55;14.65;;;9.45;;
6438;SDS011;3252;52.540;13.290;2023-08-20T01:23:10;14.82;;;9.20;;
6438;SDS011;3252;52.540;13.290;2023-08-20T01:25:30;12.15;;;9.15;;
6438;SDS011;3252;52.540;13.290;2023-08-20T01:27:46;17.00;;;9.80;;
6438;SDS011;3252;52.540;13.290;2023-08-20T01:29:56;12.23;;;10.15;;
6438;SDS011;3252;52.540;13.290;2023-08-20T01:31:58;16.40;;;12.80;;
6438;SDS011;3252;52.540;13.290;2023-08-20T01:34:01;16.75;;;11.85;;
6438;SDS011;3252;52.540;13.290;2023-08-20T01:36:06;10.43;;;9.40;;
6438;SDS011;3252;52.540;13.290;2023-08-20T01:38:10;12.70;;;9.57;;
6438;SDS011;3252;52.540;13.290;2023-08-20T01:40:12;11.02;;;8.73;;
6438;SDS011;3252;52.540;13.290;2023-08-20T01:42:14;14.25;;;9.73;;
6438;SDS011;3252;52.540;13.290;2023-08-20T01:44:16;11.80;;;9.68;;
6438;SDS011;3252;52.540;13.290;2023-08-20T01:46:20;11.60;;;9.45;;
6438;SDS011;3252;52.540;13.290;2023-08-20T01:48:25;12.73;;;10.15;;
6438;SDS011;3252;52.540;13.290;2023-08-20T01:50:28;14.35;;;9.00;;
6438;SDS011;3252;52.540;13.290;2023-08-20T01:52:29;12.43;;;9.88;;
6438;SDS011;3252;52.540;13.290;2023-08-20T01:54:31;12.38;;;9.27;;
6438;SDS011;3252;52.540;13.290;2023-08-20T01:56:33;15.80;;;8.98;;
6438;SDS011;3252;52.540;13.290;2023-08-20T01:58:36;13.13;;;9.50;;
6438;SDS011;3252;52.540;13.290;2023-08-20T02:00:38;17.60;;;8.82;;
6438;SDS011;3252;52.540;13.290;2023-08-20T02:02:41;15.93;;;9.23;;
6438;SDS011;3252;52.540;13.290;2023-08-20T02:04:44;10.65;;;9.13;;
6438;SDS011;3252;52.540;13.290;2023-08-20T02:06:46;12.07;;;9.23;;
6438;SDS011;3252;52.540;13.290;2023-08-20T02:08:48;10.90;;;9.30;;
6438;SDS011;3252;52.540;13.290;2023-08-20T02:10:50;12.95;;;9.55;;
6438;SDS011;3252;52.540;13.290;2023-08-20T02:13:00;12.93;;;9.23;;
6438;SDS011;3252;52.540;13.290;2023-08-20T02:15:02;12.73;;;8.90;;
6438;SDS011;3252;52.540;13.290;2023-08-20T02:17:06;11.23;;;8.80;;
6438;SDS011;3252;52.540;13.290;2023-08-20T02:19:10;14.18;;;9.38;;
6438;SDS011;3252;52.540;13.290;2023-08-20T02:21:12;12.02;;;9.10;;
6438;SDS011;3252;52.540;13.290;2023-08-20T02:23:15;13.98;;;9.30;;
6438;SDS011;3252;52.540;13.290;2023-08-20T02:25:18;16.40;;;9.07;;
6438;SDS011;3252;52.540;13.290;2023-08-20T02:27:20;12.73;;;8.85;;
6438;SDS011;3252;52.540;13.290;2023-08-20T02:29:21;12.23;;;8.70;;
6438;SDS011;3252;52.540;13.290;2023-08-20T02:31:24;14.90;;;9.05;;
6438;SDS011;3252;52.540;13.290;2023-08-20T02:33:27;12.98;;;8.80;;
6438;SDS011;3252;52.540;13.290;2023-08-20T02:35:31;10.27;;;8.20;;
6438;SDS011;3252;52.540;13.290;2023-08-20T02:37:36;11.77;;;8.82;;
6438;SDS011;3252;52.540;13.290;2023-08-20T02:39:38;14.05;;;8.25;;
6438;SDS011;3252;52.540;13.290;2023-08-20T02:41:40;11.68;;;7.75;;
6438;SDS011;3252;52.540;13.290;2023-08-20T02:43:43;10.85;;;7.78;;
6438;SDS011;3252;52.540;13.290;2023-08-20T02:45:45;15.00;;;7.95;;
6438;SDS011;3252;52.540;13.290;2023-08-20T02:47:47;11.25;;;7.90;;
6438;SDS011;3252;52.540;13.290;2023-08-20T02:49:50;11.05;;;8.55;;
6438;SDS011;3252;52.540;13.290;2023-08-20T02:51:53;8.55;;;7.50;;
6438;SDS011;3252;52.540;13.290;2023-08-20T02:53:55;9.45;;;7.88;;
6438;SDS011;3252;52.540;13.290;2023-08-20T02:55:57;11.50;;;8.10;;
6438;SDS011;3252;52.540;13.290;2023-08-20T02:58:00;11.15;;;8.20;;
6438;SDS011;3252;52.540;13.290;2023-08-20T03:00:03;10.82;;;7.50;;
6438;SDS011;3252;52.540;13.290;2023-08-20T03:02:08;10.45;;;7.60;;
6438;SDS011;3252;52.540;13.290;2023-08-20T03:04:10;10.38;;;7.68;;
6438;SDS011;3252;52.540;13.290;2023-08-20T03:06:11;12.48;;;8.07;;
6438;SDS011;3252;52.540;13.290;2023-08-20T03:08:15;10.20;;;8.07;;
6438;SDS011;3252;52.540;13.290;2023-08-20T03:10:17;9.50;;;7.18;;
6438;SDS011;3252;52.540;13.290;2023-08-20T03:12:18;10.05;;;7.50;;
6438;SDS011;3252;52.540;13.290;2023-08-20T03:14:20;9.95;;;7.88;;
6438;SDS011;3252;52.540;13.290;2023-08-20T03:16:22;12.25;;;8.38;;
6438;SDS011;3252;52.540;13.290;2023-08-20T03:18:25;9.20;;;7.18;;
6438;SDS011;3252;52.540;13.290;2023-08-20T03:20:27;10.10;;;7.57;;
6438;SDS011;3252;52.540;13.290;2023-08-20T03:22:31;15.45;;;8.27;;
6438;SDS011;3252;52.540;13.290;2023-08-20T03:24:33;12.25;;;8.18;;
6438;SDS011;3252;52.540;13.290;2023-08-20T03:26:35;11.82;;;7.50;;
6438;SDS011;3252;52.540;13.290;2023-08-20T03:28:38;13.57;;;7.68;;
6438;SDS011;3252;52.540;13.290;2023-08-20T03:30:40;14.25;;;7.97;;
6438;SDS011;3252;52.540;13.290;2023-08-20T03:32:42;10.90;;;7.22;;
6438;SDS011;3252;52.540;13.290;2023-08-20T03:34:44;9.48;;;7.40;;
6438;SDS011;3252;52.540;13.290;2023-08-20T03:36:51;12.13;;;7.80;;
6438;SDS011;3252;52.540;13.290;2023-08-20T03:38:53;9.30;;;7.90;;
6438;SDS011;3252;52.540;13.290;2023-08-20T03:40:57;13.20;;;11.23;;
6438;SDS011;3252;52.540;13.290;2023-08-20T03:43:00;9.63;;;8.52;;
6438;SDS011;3252;52.540;13.290;2023-08-20T03:45:04;12.63;;;9.10;;
6438;SDS011;3252;52.540;13.290;2023-08-20T03:47:07;10.77;;;8.07;;
6438;SDS011;3252;52.540;13.290;2023-08-20T03:49:08;10.70;;;8.40;;
6438;SDS011;3252;52.540;13.290;2023-08-20T03:51:10;12.43;;;8.82;;
6438;SDS011;3252;52.540;13.290;2023-08-20T03:53:13;10.15;;;8.27;;
6438;SDS011;3252;52.540;13.290;2023-08-20T03:55:16;12.73;;;8.38;;
6438;SDS011;3252;52.540;13.290;2023-08-20T03:57:20;13.05;;;7.78;;
6438;SDS011;3252;52.540;13.290;2023-08-20T03:59:22;13.10;;;8.65;;
6438;SDS011;3252;52.540;13.290;2023-08-20T04:01:23;9.82;;;8.05;;
6438;SDS011;3252;52.540;13.290;2023-08-20T04:03:25;15.80;;;8.43;;
6438;SDS011;3252;52.540;13.290;2023-08-20T04:05:27;11.65;;;9.13;;
6438;SDS011;3252;52.540;13.290;2023-08-20T04:07:30;10.98;;;8.10;;
6438;SDS011;3252;52.540;13.290;2023-08-20T04:09:32;10.95;;;7.95;;
6438;SDS011;3252;52.540;13.290;2023-08-20T04:11:35;16.90;;;8.23;;
6438;SDS011;3252;52.540;13.290;2023-08-20T04:13:38;13.32;;;8.38;;
6438;SDS011;3252;52.540;13.290;2023-08-20T04:15:43;12.98;;;8.82;;
6438;SDS011;3252;52.540;13.290;2023-08-20T04:17:46;15.38;;;8.35;;
6438;SDS011;3252;52.540;13.290;2023-08-20T04:19:47;11.75;;;8.52;;
6438;SDS011;3252;52.540;13.290;2023-08-20T04:21:49;11.07;;;8.35;;
6438;SDS011;3252;52.540;13.290;2023-08-20T04:23:51;12.30;;;9.07;;
6438;SDS011;3252;52.540;13.290;2023-08-20T04:25:52;13.30;;;9.48;;
6438;SDS011;3252;52.540;13.290;2023-08-20T04:27:55;12.05;;;9.10;;
6438;SDS011;3252;52.540;13.290;2023-08-20T04:29:58;13.50;;;9.55;;
6438;SDS011;3252;52.540;13.290;2023-08-20T04:32:01;11.93;;;9.63;;
6438;SDS011;3252;52.540;13.290;2023-08-20T04:34:04;16.30;;;9.75;;
6438;SDS011;3252;52.540;13.290;2023-08-20T04:36:14;11.40;;;9.27;;
6438;SDS011;3252;52.540;13.290;2023-08-20T04:38:16;12.98;;;10.13;;
6438;SDS011;3252;52.540;13.290;2023-08-20T04:40:19;11.23;;;9.55;;
6438;SDS011;3252;52.540;13.290;2023-08-20T04:42:21;12.35;;;10.05;;
6438;SDS011;3252;52.540;13.290;2023-08-20T04:44:22;12.25;;;9.63;;
6438;SDS011;3252;52.540;13.290;2023-08-20T04:46:29;12.10;;;9.20;;
6438;SDS011;3252;52.540;13.290;2023-08-20T04:48:31;11.70;;;10.25;;
6438;SDS011;3252;52.540;13.290;2023-08-20T04:50:34;11.13;;;9.10;;
6438;SDS011;3252;52.540;13.290;2023-08-20T04:52:38;14.48;;;10.07;;
6438;SDS011;3252;52.540;13.290;2023-08-20T04:54:41;12.75;;;10.00;;
6438;SDS011;3252;52.540;13.290;2023-08-20T04:56:43;12.90;;;10.38;;
6438;SDS011;3252;52.540;13.290;2023-08-20T04:58:46;14.38;;;10.27;;
6438;SDS011;3252;52.540;13.290;2023-08-20T05:00:58;13.73;;;10.05;;
6438;SDS011;3252;52.540;13.290;2023-08-20T05:03:02;11.80;;;10.25;;
6438;SDS011;3252;52.540;13.290;2023-08-20T05:05:05;13.02;;;10.30;;
6438;SDS011;3252;52.540;13.290;2023-08-20T05:07:08;13.70;;;10.75;;
6438;SDS011;3252;52.540;13.290;2023-08-20T05:09:10;14.68;;;11.65;;
6438;SDS011;3252;52.540;13.290;2023-08-20T05:11:12;17.67;;;11.32;;
6438;SDS011;3252;52.540;13.290;2023-08-20T05:13:14;13.35;;;10.70;;
6438;SDS011;3252;52.540;13.290;2023-08-20T05:15:17;16.17;;;11.15;;
6438;SDS011;3252;52.540;13.290;2023-08-20T05:17:19;13.07;;;10.18;;
6438;SDS011;3252;52.540;13.290;2023-08-20T05:19:23;14.32;;;11.13;;
6438;SDS011;3252;52.540;13.290;2023-08-20T05:21:25;15.60;;;11.75;;
6438;SDS011;3252;52.540;13.290;2023-08-20T05:23:27;14.73;;;11.00;;
6438;SDS011;3252;52.540;13.290;2023-08-20T05:25:29;12.75;;;10.30;;
6438;SDS011;3252;52.540;13.290;2023-08-20T05:27:31;16.52;;;11.23;;
6438;SDS011;3252;52.540;13.290;2023-08-20T05:29:33;15.52;;;11.02;;
6438;SDS011;3252;52.540;13.290;2023-08-20T05:31:36;18.40;;;11.95;;
6438;SDS011;3252;52.540;13.290;2023-08-20T05:33:39;14.38;;;10.85;;
6438;SDS011;3252;52.540;13.290;2023-08-20T05:35:43;20.80;;;12.13;;
6438;SDS011;3252;52.540;13.290;2023-08-20T05:37:46;17.30;;;11.60;;
6438;SDS011;3252;52.540;13.290;2023-08-20T05:39:48;13.75;;;11.80;;
6438;SDS011;3252;52.540;13.290;2023-08-20T05:41:50;18.23;;;11.88;;
6438;SDS011;3252;52.540;13.290;2023-08-20T05:43:53;13.93;;;11.20;;
6438;SDS011;3252;52.540;13.290;2023-08-20T05:45:55;15.15;;;11.55;;
6438;SDS011;3252;52.540;13.290;2023-08-20T05:47:58;14.18;;;10.55;;
6438;SDS011;3252;52.540;13.290;2023-08-20T05:50:00;12.65;;;10.63;;
6438;SDS011;3252;52.540;13.290;2023-08-20T05:52:04;14.23;;;11.50;;
6438;SDS011;3252;52.540;13.290;2023-08-20T05:54:05;15.45;;;11.15;;
6438;SDS011;3252;52.540;13.290;2023-08-20T05:56:07;14.32;;;11.13;;
6438;SDS011;3252;52.540;13.290;2023-08-20T05:58:10;17.08;;;12.20;;
6438;SDS011;3252;52.540;13.290;2023-08-20T06:00:12;15.88;;;11.43;;
6438;SDS011;3252;52.540;13.290;2023-08-20T06:02:20;12.85;;;10.70;;
6438;SDS011;3252;52.540;13.290;2023-08-20T06:04:22;14.32;;;11.48;;
6438;SDS011;3252;52.540;13.290;2023-08-20T06:06:25;14.88;;;11.48;;
6438;SDS011;3252;52.540;13.290;2023-08-20T06:08:28;15.60;;;11.05;;
6438;SDS011;3252;52.540;13.290;2023-08-20T06:10:31;14.90;;;11.13;;
6438;SDS011;3252;52.540;13.290;2023-08-20T06:12:33;14.15;;;11.60;;
6438;SDS011;3252;52.540;13.290;2023-08-20T06:14:35;15.95;;;10.93;;
6438;SDS011;3252;52.540;13.290;2023-08-20T06:16:37;21.13;;;12.10;;
6438;SDS011;3252;52.540;13.290;2023-08-20T06:18:39;16.25;;;12.15;;
6438;SDS011;3252;52.540;13.290;2023-08-20T06:20:41;14.40;;;11.40;;
6438;SDS011;3252;52.540;13.290;2023-08-20T06:22:43;15.88;;;11.90;;
6438;SDS011;3252;52.540;13.290;2023-08-20T06:24:47;14.93;;;12.02;;
6438;SDS011;3252;52.540;13.290;2023-08-20T06:26:49;14.77;;;11.52;;
6438;SDS011;3252;52.540;13.290;2023-08-20T06:28:51;13.13;;;11.43;;
6438;SDS011;3252;52.540;13.290;2023-08-20T06:30:53;15.55;;;11.70;;
6438;SDS011;3252;52.540;13.290;2023-08-20T06:32:55;15.90;;;11.35;;
6438;SDS011;3252;52.540;13.290;2023-08-20T06:34:57;13.07;;;10.68;;
6438;SDS011;3252;52.540;13.290;2023-08-20T06:36:59;17.20;;;11.30;;
6438;SDS011;3252;52.540;13.290;2023-08-20T06:39:01;14.80;;;10.80;;
6438;SDS011;3252;52.540;13.290;2023-08-20T06:41:05;13.18;;;10.77;;
6438;SDS011;3252;52.540;13.290;2023-08-20T06:43:07;15.05;;;11.18;;
6438;SDS011;3252;52.540;13.290;2023-08-20T06:45:09;14.90;;;10.85;;
6438;SDS011;3252;52.540;13.290;2023-08-20T06:47:11;13.05;;;11.00;;
6438;SDS011;3252;52.540;13.290;2023-08-20T06:49:15;14.32;;;9.85;;
6438;SDS011;3252;52.540;13.290;2023-08-20T06:51:19;13.73;;;10.45;;
6438;SDS011;3252;52.540;13.290;2023-08-20T06:53:21;12.13;;;10.38;;
6438;SDS011;3252;52.540;13.290;2023-08-20T06:55:24;14.32;;;10.35;;
6438;SDS011;3252;52.540;13.290;2023-08-20T06:57:28;13.48;;;10.10;;
6438;SDS011;3252;52.540;13.290;2023-08-20T06:59:33;13.02;;;9.90;;
6438;SDS011;3252;52.540;13.290;2023-08-20T07:01:35;11.85;;;9.80;;
6438;SDS011;3252;52.540;13.290;2023-08-20T07:03:38;11.25;;;9.00;;
6438;SDS011;3252;52.540;13.290;2023-08-20T07:05:41;15.48;;;10.98;;
6438;SDS011;3252;52.540;13.290;2023-08-20T07:07:43;13.80;;;9.30;;
6438;SDS011;3252;52.540;13.290;2023-08-20T07:09:46;13.85;;;9.93;;
6438;SDS011;3252;52.540;13.290;2023-08-20T07:11:48;15.93;;;11.13;;
6438;SDS011;3252;52.540;13.290;2023-08-20T07:13:52;18.65;;;11.38;;
6438;SDS011;3252;52.540;13.290;2023-08-20T07:15:54;16.73;;;11.48;;
6438;SDS011;3252;52.540;13.290;2023-08-20T07:17:56;18.17;;;11.98;;
6438;SDS011;3252;52.540;13.290;2023-08-20T07:19:58;12.85;;;10.05;;
6438;SDS011;3252;52.540;13.290;2023-08-20T07:22:00;15.82;;;9.40;;
6438;SDS011;3252;52.540;13.290;2023-08-20T07:24:02;15.40;;;10.15;;
6438;SDS011;3252;52.540;13.290;2023-08-20T07:26:05;15.15;;;9.75;;
6438;SDS011;3252;52.540;13.290;2023-08-20T07:28:09;10.68;;;8.85;;
6438;SDS011;3252;52.540;13.290;2023-08-20T07:30:12;14.43;;;8.77;;
6438;SDS011;3252;52.540;13.290;2023-08-20T07:32:15;10.95;;;8.55;;
6438;SDS011;3252;52.540;13.290;2023-08-20T07:34:17;10.85;;;8.80;;
6438;SDS011;3252;52.540;13.290;2023-08-20T07:36:20;13.27;;;9.25;;
6438;SDS011;3252;52.540;13.290;2023-08-20T07:38:23;14.10;;;9.50;;
6438;SDS011;3252;52.540;13.290;2023-08-20T07:40:25;14.43;;;11.18;;
6438;SDS011;3252;52.540;13.290;2023-08-20T07:42:27;12.82;;;10.63;;
6438;SDS011;3252;52.540;13.290;2023-08-20T07:44:29;15.23;;;10.18;;
6438;SDS011;3252;52.540;13.290;2023-08-20T07:46:32;12.80;;;10.20;;
6438;SDS011;3252;52.540;13.290;2023-08-20T07:48:35;11.75;;;9.60;;
6438;SDS011;3252;52.540;13.290;2023-08-20T07:50:37;12.68;;;9.77;;
6438;SDS011;3252;52.540;13.290;2023-08-20T07:52:39;9.45;;;8.45;;
6438;SDS011;3252;52.540;13.290;2023-08-20T07:54:41;11.32;;;8.57;;
6438;SDS011;3252;52.540;13.290;2023-08-20T07:56:45;8.90;;;8.00;;
6438;SDS011;3252;52.540;13.290;2023-08-20T07:58:47;10.48;;;7.85;;
6438;SDS011;3252;52.540;13.290;2023-08-20T08:00:49;9.52;;;7.57;;
6438;SDS011;3252;52.540;13.290;2023-08-20T08:02:52;9.85;;;8.68;;
6438;SDS011;3252;52.540;13.290;2023-08-20T08:04:54;9.57;;;7.20;;
6438;SDS011;3252;52.540;13.290;2023-08-20T08:06:57;13.63;;;7.20;;
6438;SDS011;3252;52.540;13.290;2023-08-20T08:09:14;10.32;;;6.82;;
6438;SDS011;3252;52.540;13.290;2023-08-20T08:11:19;10.70;;;7.00;;
6438;SDS011;3252;52.540;13.290;2023-08-20T08:13:21;10.20;;;6.63;;
6438;SDS011;3252;52.540;13.290;2023-08-20T08:15:24;8.68;;;6.95;;
6438;SDS011;3252;52.540;13.290;2023-08-20T08:17:26;8.82;;;6.40;;
6438;SDS011;3252;52.540;13.290;2023-08-20T08:19:29;9.45;;;6.45;;
6438;SDS011;3252;52.540;13.290;2023-08-20T08:21:30;1124.65;;;898.58;;
6438;SDS011;3252;52.540;13.290;2023-08-20T08:23:32;1208.38;;;854.25;;
6438;SDS011;3252;52.540;13.290;2023-08-20T08:25:34;1999.90;;;999.90;;
6438;SDS011;3252;52.540;13.290;2023-08-20T08:27:37;698.28;;;491.42;;
6438;SDS011;3252;52.540;13.290;2023-08-20T08:29:39;16.13;;;10.40;;
6438;SDS011;3252;52.540;13.290;2023-08-20T08:31:41;8.02;;;5.05;;
6438;SDS011;3252;52.540;13.290;2023-08-20T08:33:43;9.88;;;5.13;;
6438;SDS011;3252;52.540;13.290;2023-08-20T08:35:47;7.95;;;5.20;;
6438;SDS011;3252;52.540;13.290;2023-08-20T08:37:49;9.38;;;5.43;;
6438;SDS011;3252;52.540;13.290;2023-08-20T08:39:51;7.50;;;5.05;;
6438;SDS011;3252;52.540;13.290;2023-08-20T08:41:54;8.98;;;5.40;;
6438;SDS011;3252;52.540;13.290;2023-08-20T08:44:02;7.57;;;5.40;;
6438;SDS011;3252;52.540;13.290;2023-08-20T08:46:05;8.27;;;4.68;;
6438;SDS011;3252;52.540;13.290;2023-08-20T08:48:08;9.27;;;4.50;;
6438;SDS011;3252;52.540;13.290;2023-08-20T08:50:11;7.15;;;4.47;;
6438;SDS011;3252;52.540;13.290;2023-08-20T08:52:14;6.38;;;4.40;;
6438;SDS011;3252;52.540;13.290;2023-08-20T08:54:17;7.22;;;4.30;;
6438;SDS011;3252;52.540;13.290;2023-08-20T08:56:19;6.18;;;4.15;;
6438;SDS011;3252;52.540;13.290;2023-08-20T08:58:22;5.20;;;3.85;;
6438;SDS011;3252;52.540;13.290;2023-08-20T09:00:24;6.50;;;4.53;;
6438;SDS011;3252;52.540;13.290;2023-08-20T09:02:26;5.13;;;4.13;;
6438;SDS011;3252;52.540;13.290;2023-08-20T09:04:28;5.45;;;3.67;;
6438;SDS011;3252;52.540;13.290;2023-08-20T09:06:44;5.68;;;3.45;;
6438;SDS011;3252;52.540;13.290;2023-08-20T09:08:48;11.43;;;3.90;;
6438;SDS011;3252;52.540;13.290;2023-08-20T09:10:51;43.42;;;4.40;;
6438;SDS011;3252;52.540;13.290;2023-08-20T09:12:53;5.75;;;3.88;;
6438;SDS011;3252;52.540;13.290;2023-08-20T09:14:57;3.95;;;3.40;;
6438;SDS011;3252;52.540;13.290;2023-08-20T09:17:01;5.25;;;3.58;;
6438;SDS011;3252;52.540;13.290;2023-08-20T09:19:03;4.47;;;3.45;;
6438;SDS011;3252;52.540;13.290;2023-08-20T09:21:06;10.27;;;7.70;;
6438;SDS011;3252;52.540;13.290;2023-08-20T09:23:10;6.88;;;5.15;;
6438;SDS011;3252;52.540;13.290;2023-08-20T09:25:16;5.50;;;3.35;;
6438;SDS011;3252;52.540;13.290;2023-08-20T09:27:18;5.95;;;3.28;;
6438;SDS011;3252;52.540;13.290;2023-08-20T09:29:20;6.63;;;3.15;;
6438;SDS011;3252;52.540;13.290;2023-08-20T09:31:36;5.63;;;3.08;;
6438;SDS011;3252;52.540;13.290;2023-08-20T09:33:48;8.35;;;4.30;;
6438;SDS011;3252;52.540;13.290;2023-08-20T09:35:51;17.95;;;14.60;;
6438;SDS011;3252;52.540;13.290;2023-08-20T09:37:58;8.20;;;6.80;;
6438;SDS011;3252;52.540;13.290;2023-08-20T09:40:00;7.30;;;3.85;;
6438;SDS011;3252;52.540;13.290;2023-08-20T09:42:05;7.90;;;3.17;;
6438;SDS011;3252;52.540;13.290;2023-08-20T09:44:08;7.30;;;4.40;;
6438;SDS011;3252;52.540;13.290;2023-08-20T09:46:10;8.50;;;3.53;;
6438;SDS011;3252;52.540;13.290;2023-08-20T09:48:15;5.80;;;3.30;;
6438;SDS011;3252;52.540;13.290;2023-08-20T09:50:20;5.43;;;3.30;;
6438;SDS011;3252;52.540;13.290;2023-08-20T09:52:25;5.60;;;3.38;;
6438;SDS011;3252;52.540;13.290;2023-08-20T09:54:34;8.20;;;3.15;;
6438;SDS011;3252;52.540;13.290;2023-08-20T09:56:54;7.63;;;5.07;;
6438;SDS011;3252;52.540;13.290;2023-08-20T09:59:01;5.22;;;3.40;;
6438;SDS011;3252;52.540;13.290;2023-08-20T10:01:04;3.08;;;2.38;;
6438;SDS011;3252;52.540;13.290;2023-08-20T10:03:07;3.25;;;2.28;;
6438;SDS011;3252;52.540;13.290;2023-08-20T10:05:11;7.97;;;2.88;;
6438;SDS011;3252;52.540;13.290;2023-08-20T10:07:14;4.75;;;2.40;;
6438;SDS011;3252;52.540;13.290;2023-08-20T10:09:17;4.18;;;2.28;;
6438;SDS011;3252;52.540;13.290;2023-08-20T10:11:19;6.03;;;3.05;;
6438;SDS011;3252;52.540;13.290;2023-08-20T10:13:21;3.92;;;3.17;;
6438;SDS011;3252;52.540;13.290;2023-08-20T10:15:25;5.00;;;2.33;;
6438;SDS011;3252;52.540;13.290;2023-08-20T10:17:29;3.70;;;1.90;;
6438;SDS011;3252;52.540;13.290;2023-08-20T10:19:32;8.40;;;2.13;;
6438;SDS011;3252;52.540;13.290;2023-08-20T10:21:34;6.47;;;4.15;;
6438;SDS011;3252;52.540;13.290;2023-08-20T10:23:39;7.70;;;3.67;;
6438;SDS011;3252;52.540;13.290;2023-08-20T10:25:42;6.80;;;3.83;;
6438;SDS011;3252;52.540;13.290;2023-08-20T10:27:44;3.38;;;2.70;;
6438;SDS011;3252;52.540;13.290;2023-08-20T10:29:47;3.00;;;2.00;;
6438;SDS011;3252;52.540;13.290;2023-08-20T10:31:50;5.85;;;1.90;;
6438;SDS011;3252;52.540;13.290;2023-08-20T10:33:55;3.33;;;1.80;;
6438;SDS011;3252;52.540;13.290;2023-08-20T10:36:06;4.35;;;2.38;;
6438;SDS011;3252;52.540;13.290;2023-08-20T10:38:11;5.78;;;2.47;;
6438;SDS011;3252;52.540;13.290;2023-08-20T10:40:16;9.13;;;3.17;;
6438;SDS011;3252;52.540;13.290;2023-08-20T10:42:52;4.78;;;2.25;;
6438;SDS011;3252;52.540;13.290;2023-08-20T10:45:05;4.30;;;2.00;;
6438;SDS011;3252;52.540;13.290;2023-08-20T10:47:10;4.47;;;2.20;;
6438;SDS011;3252;52.540;13.290;2023-08-20T10:49:19;4.50;;;2.00;;
6438;SDS011;3252;52.540;13.290;2023-08-20T10:51:24;3.92;;;2.35;;
6438;SDS011;3252;52.540;13.290;2023-08-20T10:53:29;3.75;;;1.98;;
6438;SDS011;3252;52.540;13.290;2023-08-20T10:55:30;4.90;;;2.33;;
6438;SDS011;3252;52.540;13.290;2023-08-20T10:57:33;6.38;;;3.28;;
6438;SDS011;3252;52.540;13.290;2023-08-20T10:59:35;6.97;;;4.07;;
6438;SDS011;3252;52.540;13.290;2023-08-20T11:01:42;7.03;;;3.40;;
6438;SDS011;3252;52.540;13.290;2023-08-20T11:03:48;4.35;;;2.42;;
6438;SDS011;3252;52.540;13.290;2023-08-20T11:05:50;6.63;;;2.38;;
6438;SDS011;3252;52.540;13.290;2023-08-20T11:07:53;5.68;;;2.40;;
6438;SDS011;3252;52.540;13.290;2023-08-20T11:09:55;2.65;;;1.92;;
6438;SDS011;3252;52.540;13.290;2023-08-20T11:11:58;6.93;;;2.42;;
6438;SDS011;3252;52.540;13.290;2023-08-20T11:14:04;4.80;;;2.75;;
6438;SDS011;3252;52.540;13.290;2023-08-20T11:16:08;5.90;;;2.70;;
6438;SDS011;3252;52.540;13.290;2023-08-20T11:18:11;6.20;;;2.50;;
6438;SDS011;3252;52.540;13.290;2023-08-20T11:20:14;4.45;;;2.20;;
6438;SDS011;3252;52.540;13.290;2023-08-20T11:22:17;4.97;;;2.10;;
6438;SDS011;3252;52.540;13.290;2023-08-20T11:24:19;4.20;;;1.85;;
6438;SDS011;3252;52.540;13.290;2023-08-20T11:26:21;6.18;;;1.90;;
6438;SDS011;3252;52.540;13.290;2023-08-20T11:28:24;4.35;;;2.13;;
6438;SDS011;3252;52.540;13.290;2023-08-20T11:30:28;4.60;;;2.78;;
6438;SDS011;3252;52.540;13.290;2023-08-20T11:32:31;6.03;;;2.80;;
6438;SDS011;3252;52.540;13.290;2023-08-20T11:34:33;5.03;;;2.28;;
6438;SDS011;3252;52.540;13.290;2023-08-20T11:36:37;4.78;;;2.40;;
6438;SDS011;3252;52.540;13.290;2023-08-20T11:38:40;3.95;;;2.00;;
6438;SDS011;3252;52.540;13.290;2023-08-20T11:40:42;3.88;;;2.17;;
6438;SDS011;3252;52.540;13.290;2023-08-20T11:42:44;5.47;;;2.50;;
6438;SDS011;3252;52.540;13.290;2023-08-20T11:44:46;4.32;;;2.10;;
6438;SDS011;3252;52.540;13.290;2023-08-20T11:46:49;3.13;;;2.22;;
6438;SDS011;3252;52.540;13.290;2023-08-20T11:49:00;5.50;;;2.67;;
6438;SDS011;3252;52.540;13.290;2023-08-20T11:51:04;4.82;;;2.30;;
6438;SDS011;3252;52.540;13.290;2023-08-20T11:53:08;3.72;;;2.00;;
6438;SDS011;3252;52.540;13.290;2023-08-20T11:55:10;4.65;;;2.13;;
6438;SDS011;3252;52.540;13.290;2023-08-20T11:57:13;2.58;;;1.90;;
6438;SDS011;3252;52.540;13.290;2023-08-20T11:59:15;2.65;;;1.63;;
6438;SDS011;3252;52.540;13.290;2023-08-20T12:01:18;2.58;;;1.80;;
6438;SDS011;3252;52.540;13.290;2023-08-20T12:03:21;3.80;;;1.73;;
6438;SDS011;3252;52.540;13.290;2023-08-20T12:05:26;4.82;;;2.25;;
6438;SDS011;3252;52.540;13.290;2023-08-20T12:07:27;3.55;;;2.30;;
6438;SDS011;3252;52.540;13.290;2023-08-20T12:09:32;3.20;;;2.10;;
6438;SDS011;3252;52.540;13.290;2023-08-20T12:11:34;3.50;;;1.95;;
6438;SDS011;3252;52.540;13.290;2023-08-20T12:13:36;5.32;;;2.28;;
6438;SDS011;3252;52.540;13.290;2023-08-20T12:15:38;5.45;;;2.03;;
6438;SDS011;3252;52.540;13.290;2023-08-20T12:17:41;2.95;;;2.03;;
6438;SDS011;3252;52.540;13.290;2023-08-20T12:19:42;3.22;;;1.90;;
6438;SDS011;3252;52.540;13.290;2023-08-20T12:21:44;3.50;;;2.00;;
6438;SDS011;3252;52.540;13.290;2023-08-20T12:23:46;5.97;;;2.17;;